createdAt,value
2017-10-11T00:02:19.321Z,11.80
2017-10-11T00:04:47.599Z,11.80
2017-10-11T00:07:15.930Z,11.90
2017-10-11T00:09:44.211Z,11.90
2017-10-11T00:12:12.482Z,11.90
2017-10-11T00:14:40.756Z,11.90
2017-10-11T00:17:09.830Z,11.90
2017-10-11T00:19:38.856Z,12.00
2017-10-11T00:22:07.167Z,11.90
2017-10-11T00:24:36.505Z,11.90
2017-10-11T00:27:05.532Z,12.00
2017-10-11T00:29:33.852Z,12.00
2017-10-11T00:32:02.152Z,12.00
2017-10-11T00:34:30.542Z,12.00
2017-10-11T00:36:58.921Z,12.00
2017-10-11T00:39:27.217Z,12.00
2017-10-11T00:41:55.495Z,12.00
2017-10-11T00:44:23.858Z,12.00
2017-10-11T00:46:52.137Z,12.00
2017-10-11T00:49:20.417Z,12.00
2017-10-11T00:51:48.750Z,12.00
2017-10-11T00:54:16.987Z,12.10
2017-10-11T00:56:45.286Z,12.10
2017-10-11T00:59:13.598Z,12.10
2017-10-11T01:01:42.611Z,12.10
2017-10-11T01:04:11.666Z,12.10
2017-10-11T01:06:39.971Z,12.10
2017-10-11T01:09:08.288Z,12.10
2017-10-11T01:11:36.592Z,12.00
2017-10-11T01:14:04.896Z,12.00
2017-10-11T01:16:33.931Z,12.10
2017-10-11T01:19:02.216Z,12.10
2017-10-11T01:21:30.516Z,12.10
2017-10-11T01:23:59.583Z,12.10
2017-10-11T01:26:27.844Z,12.10
2017-10-11T01:28:56.136Z,12.10
2017-10-11T01:31:24.423Z,12.10
2017-10-11T01:33:52.695Z,12.10
2017-10-11T01:36:21.055Z,12.20
2017-10-11T01:38:49.305Z,12.20
2017-10-11T01:41:17.587Z,12.20
2017-10-11T01:43:45.910Z,12.10
2017-10-11T01:46:14.201Z,12.10
2017-10-11T01:48:43.335Z,12.20
2017-10-11T01:51:11.643Z,12.10
2017-10-11T01:53:39.941Z,12.20
2017-10-11T01:56:08.220Z,12.20
2017-10-11T01:58:37.299Z,12.20
2017-10-11T02:01:05.552Z,12.20
2017-10-11T02:03:33.799Z,12.20
2017-10-11T02:06:02.073Z,12.20
2017-10-11T02:08:30.353Z,12.10
2017-10-11T02:10:58.625Z,12.10
2017-10-11T02:13:26.922Z,12.00
2017-10-11T02:15:55.188Z,12.00
2017-10-11T02:18:23.440Z,12.00
2017-10-11T02:20:52.507Z,12.10
2017-10-11T02:23:20.814Z,12.00
2017-10-11T02:25:49.832Z,12.10
2017-10-11T02:28:18.131Z,12.10
2017-10-11T02:30:46.408Z,12.10
2017-10-11T02:33:14.666Z,12.10
2017-10-11T02:35:42.971Z,12.20
2017-10-11T02:38:11.234Z,12.20
2017-10-11T02:40:39.523Z,12.30
2017-10-11T02:43:07.840Z,12.20
2017-10-11T02:45:36.849Z,12.30
2017-10-11T02:48:05.155Z,12.20
2017-10-11T02:50:33.528Z,12.30
2017-10-11T02:53:01.775Z,12.30
2017-10-11T02:55:30.059Z,12.30
2017-10-11T02:57:59.102Z,12.30
2017-10-11T03:00:27.371Z,12.30
2017-10-11T03:02:55.629Z,12.30
2017-10-11T03:05:23.951Z,12.40
2017-10-11T03:07:52.234Z,12.40
2017-10-11T03:10:20.534Z,12.40
2017-10-11T03:12:48.861Z,12.40
2017-10-11T03:15:17.119Z,12.40
2017-10-11T03:17:45.397Z,12.40
2017-10-11T03:20:13.725Z,12.50
2017-10-11T03:22:41.999Z,12.50
2017-10-11T03:25:10.271Z,12.50
2017-10-11T03:27:39.369Z,12.50
2017-10-11T03:30:07.624Z,12.50
2017-10-11T03:32:36.648Z,12.50
2017-10-11T03:35:04.967Z,12.50
2017-10-11T03:37:33.224Z,12.50
2017-10-11T03:40:01.476Z,12.50
2017-10-11T03:42:29.799Z,12.50
2017-10-11T03:44:58.074Z,12.60
2017-10-11T03:47:26.337Z,12.60
2017-10-11T03:49:54.719Z,12.70
2017-10-11T03:52:23.059Z,12.60
2017-10-11T03:54:51.338Z,12.70
2017-10-11T03:57:19.670Z,12.60
2017-10-11T03:59:48.695Z,12.70
2017-10-11T04:02:16.988Z,12.60
2017-10-11T04:04:45.318Z,12.70
2017-10-11T04:07:14.364Z,12.70
2017-10-11T04:09:42.653Z,12.60
2017-10-11T04:12:10.974Z,12.70
2017-10-11T04:14:40.163Z,12.70
2017-10-11T04:17:08.406Z,12.70
2017-10-11T04:19:36.750Z,12.70
2017-10-11T04:22:05.082Z,12.70
2017-10-11T04:24:33.363Z,12.70
2017-10-11T04:27:01.675Z,12.70
2017-10-11T04:29:29.948Z,12.70
2017-10-11T04:31:58.231Z,12.70
2017-10-11T04:34:26.568Z,12.70
2017-10-11T04:36:54.832Z,12.70
2017-10-11T04:39:23.080Z,12.70
2017-10-11T04:41:51.435Z,12.70
2017-10-11T04:44:19.676Z,12.70
2017-10-11T04:46:47.999Z,12.70
2017-10-11T04:49:16.295Z,12.80
2017-10-11T04:51:45.040Z,12.70
2017-10-11T04:54:13.372Z,12.70
2017-10-11T04:56:41.689Z,12.70
2017-10-11T04:59:10.778Z,12.70
2017-10-11T05:01:39.789Z,12.70
2017-10-11T05:04:08.123Z,12.70
2017-10-11T05:06:36.398Z,12.80
2017-10-11T05:09:04.712Z,12.80
2017-10-11T05:11:33.015Z,12.80
2017-10-11T05:14:01.258Z,12.80
2017-10-11T05:16:29.511Z,12.80
2017-10-11T05:18:57.826Z,12.80
2017-10-11T05:21:26.145Z,12.70
2017-10-11T05:23:54.399Z,12.80
2017-10-11T05:26:22.696Z,12.80
2017-10-11T05:28:50.947Z,12.80
2017-10-11T05:31:19.211Z,12.80
2017-10-11T05:33:47.514Z,12.80
2017-10-11T05:36:15.839Z,12.80
2017-10-11T05:38:44.887Z,12.80
2017-10-11T05:41:13.220Z,12.80
2017-10-11T05:43:41.475Z,12.70
2017-10-11T05:46:10.501Z,12.60
2017-10-11T05:48:38.796Z,12.60
2017-10-11T05:51:07.059Z,12.50
2017-10-11T05:53:35.306Z,12.60
2017-10-11T05:56:03.587Z,12.50
2017-10-11T05:58:31.856Z,12.60
2017-10-11T06:01:00.957Z,12.60
2017-10-11T06:03:29.303Z,12.60
2017-10-11T06:05:57.578Z,12.60
2017-10-11T06:08:25.896Z,12.60
2017-10-11T06:10:54.268Z,12.60
2017-10-11T06:13:22.668Z,12.80
2017-10-11T06:15:51.207Z,13.00
2017-10-11T06:18:20.428Z,13.20
2017-10-11T06:20:48.689Z,13.20
2017-10-11T06:23:17.796Z,13.20
2017-10-11T06:25:46.243Z,13.20
2017-10-11T06:28:14.536Z,13.20
2017-10-11T06:30:43.663Z,13.30
2017-10-11T06:33:12.102Z,13.20
2017-10-11T06:35:40.373Z,13.00
2017-10-11T06:38:08.650Z,12.90
2017-10-11T06:40:37.062Z,12.90
2017-10-11T06:43:05.342Z,12.90
2017-10-11T06:45:33.588Z,12.90
2017-10-11T06:48:02.678Z,12.70
2017-10-11T06:50:30.964Z,12.70
2017-10-11T06:52:59.231Z,12.80
2017-10-11T06:55:27.569Z,12.80
2017-10-11T06:57:57.580Z,12.80
2017-10-11T07:00:25.856Z,12.80
2017-10-11T07:02:54.130Z,12.80
2017-10-11T07:05:22.413Z,12.80
2017-10-11T07:07:50.703Z,12.80
2017-10-11T07:10:19.028Z,12.80
2017-10-11T07:12:47.339Z,12.70
2017-10-11T07:15:15.634Z,12.70
2017-10-11T07:17:44.016Z,12.70
2017-10-11T07:20:12.256Z,12.80
2017-10-11T07:22:40.535Z,13.00
2017-10-11T07:25:08.984Z,12.90
2017-10-11T07:27:38.029Z,12.80
2017-10-11T07:30:06.306Z,12.80
2017-10-11T07:32:34.711Z,12.90
2017-10-11T07:35:03.728Z,13.10
2017-10-11T07:37:31.982Z,13.10
2017-10-11T07:40:01.077Z,13.10
2017-10-11T07:42:29.396Z,13.10
2017-10-11T07:44:58.081Z,13.10
2017-10-11T07:47:26.535Z,13.20
2017-10-11T07:49:55.550Z,13.20
2017-10-11T07:52:23.857Z,13.20
2017-10-11T07:54:52.179Z,13.20
2017-10-11T07:57:20.453Z,13.30
2017-10-11T07:59:49.473Z,13.40
2017-10-11T08:02:17.900Z,13.40
2017-10-11T08:04:46.969Z,13.50
2017-10-11T08:07:15.248Z,13.50
2017-10-11T08:09:43.618Z,13.40
2017-10-11T08:12:11.924Z,13.50
2017-10-11T08:14:40.252Z,13.60
2017-10-11T08:17:08.557Z,13.50
2017-10-11T08:19:36.808Z,13.70
2017-10-11T08:22:05.079Z,13.70
2017-10-11T08:24:33.439Z,13.70
2017-10-11T08:27:01.742Z,13.80
2017-10-11T08:29:30.059Z,13.80
2017-10-11T08:31:58.435Z,13.90
2017-10-11T08:34:26.744Z,13.90
2017-10-11T08:36:55.076Z,13.90
2017-10-11T08:39:23.532Z,14.00
2017-10-11T08:41:51.785Z,14.00
2017-10-11T08:44:20.347Z,14.10
2017-10-11T08:46:49.487Z,14.10
2017-10-11T08:49:17.778Z,14.10
2017-10-11T08:51:46.070Z,14.20
2017-10-11T08:54:14.422Z,14.10
2017-10-11T08:56:42.755Z,14.20
2017-10-11T08:59:11.042Z,14.20
2017-10-11T09:01:39.418Z,14.20
2017-10-11T09:04:07.762Z,14.30
2017-10-11T09:06:36.088Z,14.20
2017-10-11T09:09:04.400Z,14.30
2017-10-11T09:11:32.678Z,14.30
2017-10-11T09:14:01.076Z,14.30
2017-10-11T09:16:30.185Z,14.40
2017-10-11T09:18:59.330Z,14.50
2017-10-11T09:21:27.591Z,14.50
2017-10-11T09:23:55.896Z,14.50
2017-10-11T09:26:24.139Z,14.60
2017-10-11T09:28:52.444Z,14.60
2017-10-11T09:31:20.766Z,14.60
2017-10-11T09:33:49.174Z,14.70
2017-10-11T09:36:17.514Z,14.70
2017-10-11T09:38:45.848Z,14.80
2017-10-11T09:41:14.098Z,14.80
2017-10-11T09:43:42.457Z,14.90
2017-10-11T09:46:10.745Z,15.00
2017-10-11T09:48:38.980Z,15.10
2017-10-11T09:51:07.314Z,15.20
2017-10-11T09:53:36.307Z,15.20
2017-10-11T09:56:04.549Z,15.20
2017-10-11T09:58:32.903Z,15.30
2017-10-11T10:01:01.166Z,15.30
2017-10-11T10:03:29.421Z,15.30
2017-10-11T10:05:57.795Z,15.30
2017-10-11T10:08:26.069Z,15.40
2017-10-11T10:10:54.347Z,15.50
2017-10-11T10:13:22.696Z,15.50
2017-10-11T10:15:50.939Z,15.50
2017-10-11T10:18:19.238Z,15.60
2017-10-11T10:20:47.534Z,15.60
2017-10-11T10:23:15.778Z,15.60
2017-10-11T10:25:44.785Z,15.50
2017-10-11T10:28:13.938Z,15.60
2017-10-11T10:30:42.200Z,15.60
2017-10-11T10:33:10.486Z,15.70
2017-10-11T10:35:38.801Z,15.70
2017-10-11T10:38:07.043Z,15.70
2017-10-11T10:40:35.285Z,15.80
2017-10-11T10:43:03.776Z,15.90
2017-10-11T10:45:34.658Z,16.00
2017-10-11T10:48:03.006Z,15.90
2017-10-11T10:50:31.280Z,16.00
2017-10-11T10:52:59.517Z,16.00
2017-10-11T10:55:27.852Z,16.00
2017-10-11T10:57:56.097Z,16.00
2017-10-11T11:00:24.339Z,16.10
2017-10-11T11:02:52.685Z,16.00
2017-10-11T11:05:20.925Z,16.10
2017-10-11T11:07:49.168Z,16.10
2017-10-11T11:10:17.556Z,16.10
2017-10-11T11:12:45.782Z,16.10
2017-10-11T11:15:14.038Z,16.10
2017-10-11T11:17:42.358Z,16.20
2017-10-11T11:20:11.779Z,16.20
2017-10-11T11:22:40.043Z,16.20
2017-10-11T11:25:08.364Z,16.20
2017-10-11T11:27:36.619Z,16.20
2017-10-11T11:30:04.879Z,16.20
2017-10-11T11:32:33.228Z,16.40
2017-10-11T11:35:02.231Z,16.30
2017-10-11T11:37:31.247Z,16.40
2017-10-11T11:39:59.555Z,16.40
2017-10-11T11:42:27.794Z,16.30
2017-10-11T11:44:56.022Z,16.40
2017-10-11T11:47:24.379Z,16.40
2017-10-11T11:49:52.631Z,16.50
2017-10-11T11:52:20.863Z,16.50
2017-10-11T11:54:49.281Z,16.60
2017-10-11T11:57:17.504Z,16.60
2017-10-11T11:59:45.740Z,16.70
2017-10-11T12:02:14.122Z,16.70
2017-10-11T12:04:42.359Z,16.80
2017-10-11T12:07:11.380Z,16.90
2017-10-11T12:09:39.955Z,16.80
2017-10-11T12:12:08.244Z,16.90
2017-10-11T12:14:36.486Z,16.90
2017-10-11T12:17:04.865Z,17.00
2017-10-11T12:19:33.135Z,17.00
2017-10-11T12:22:01.429Z,17.10
2017-10-11T12:24:29.745Z,17.20
2017-10-11T12:26:58.023Z,17.10
2017-10-11T12:29:26.294Z,17.10
2017-10-11T12:31:54.640Z,17.20
2017-10-11T12:34:22.898Z,17.30
2017-10-11T12:36:51.130Z,17.30
2017-10-11T12:39:19.465Z,17.40
2017-10-11T12:41:47.732Z,17.40
2017-10-11T12:44:16.024Z,17.40
2017-10-11T12:46:44.846Z,17.40
2017-10-11T12:49:13.100Z,17.40
2017-10-11T12:51:41.367Z,17.40
2017-10-11T12:54:09.688Z,17.50
2017-10-11T12:56:38.737Z,17.50
2017-10-11T12:59:06.990Z,17.50
2017-10-11T13:01:35.293Z,17.60
2017-10-11T13:04:03.546Z,17.60
2017-10-11T13:06:31.777Z,17.70
2017-10-11T13:09:00.065Z,17.80
2017-10-11T13:11:28.301Z,17.80
2017-10-11T13:13:56.641Z,17.70
2017-10-11T13:16:25.687Z,17.70
2017-10-11T13:18:53.946Z,17.70
2017-10-11T13:21:22.189Z,17.80
2017-10-11T13:23:51.275Z,17.80
2017-10-11T13:26:20.271Z,17.90
2017-10-11T13:28:48.507Z,17.90
2017-10-11T13:31:16.801Z,18.00
2017-10-11T13:33:45.183Z,18.10
2017-10-11T13:36:13.414Z,18.20
2017-10-11T13:38:42.571Z,18.20
2017-10-11T13:41:11.574Z,18.20
2017-10-11T13:43:39.811Z,18.20
2017-10-11T13:46:08.097Z,18.10
2017-10-11T13:48:36.345Z,18.20
2017-10-11T13:51:04.588Z,18.10
2017-10-11T13:53:32.913Z,18.10
2017-10-11T13:56:01.157Z,18.10
2017-10-11T13:58:29.433Z,18.10
2017-10-11T14:00:57.730Z,18.10
2017-10-11T14:03:25.970Z,18.10
2017-10-11T14:05:54.309Z,18.00
2017-10-11T14:08:22.634Z,18.00
2017-10-11T14:10:50.868Z,18.00
2017-10-11T14:13:19.862Z,18.00
2017-10-11T14:15:48.929Z,18.00
2017-10-11T14:18:17.210Z,18.00
2017-10-11T14:20:45.483Z,18.00
2017-10-11T14:23:13.768Z,17.90
2017-10-11T14:25:42.897Z,17.90
2017-10-11T14:28:11.160Z,17.90
2017-10-11T14:30:40.331Z,18.00
2017-10-11T14:33:09.357Z,18.00
2017-10-11T14:35:37.790Z,18.00
2017-10-11T14:38:06.074Z,18.00
2017-10-11T14:40:34.348Z,17.90
2017-10-11T14:43:02.612Z,18.00
2017-10-11T14:45:31.958Z,18.00
2017-10-11T14:48:01.026Z,17.90
2017-10-11T14:50:29.348Z,17.90
2017-10-11T14:52:57.957Z,18.00
2017-10-11T14:55:26.225Z,17.90
2017-10-11T14:57:54.491Z,18.00
2017-10-11T15:00:22.835Z,17.70
2017-10-11T15:02:51.112Z,17.60
2017-10-11T15:05:20.126Z,17.70
2017-10-11T15:07:48.427Z,17.70
2017-10-11T15:10:17.442Z,17.50
2017-10-11T15:12:45.730Z,17.50
2017-10-11T15:15:14.148Z,17.50
2017-10-11T15:17:43.151Z,17.50
2017-10-11T15:20:11.554Z,17.30
2017-10-11T15:22:40.274Z,17.20
2017-10-11T15:25:08.734Z,17.30
2017-10-11T15:27:37.876Z,17.20
2017-10-11T15:30:06.258Z,17.20
2017-10-11T15:32:34.652Z,17.10
2017-10-11T15:35:02.954Z,17.00
2017-10-11T15:37:31.352Z,17.00
2017-10-11T15:39:59.593Z,17.10
2017-10-11T15:42:27.982Z,17.00
2017-10-11T15:44:56.320Z,17.00
2017-10-11T15:47:24.586Z,16.80
2017-10-11T15:49:53.672Z,16.80
2017-10-11T15:52:22.734Z,16.70
2017-10-11T15:54:51.050Z,16.70
2017-10-11T15:57:20.237Z,16.70
2017-10-11T15:59:49.428Z,16.60
2017-10-11T16:02:19.428Z,16.70
2017-10-11T16:04:48.183Z,16.60
2017-10-11T16:07:16.666Z,16.70
2017-10-11T16:09:45.072Z,16.60
2017-10-11T16:12:13.389Z,16.60
2017-10-11T16:14:41.768Z,16.70
2017-10-11T16:17:10.165Z,16.70
2017-10-11T16:19:38.463Z,16.70
2017-10-11T16:22:07.438Z,16.60
2017-10-11T16:24:35.990Z,16.60
2017-10-11T16:27:05.019Z,16.50
2017-10-11T16:29:33.310Z,16.50
2017-10-11T16:32:01.591Z,16.40
2017-10-11T16:34:29.877Z,16.50
2017-10-11T16:37:00.474Z,16.60
2017-10-11T16:39:28.856Z,16.70
2017-10-11T16:41:57.127Z,16.60
2017-10-11T16:44:25.423Z,16.70
2017-10-11T16:46:53.737Z,16.60
2017-10-11T16:49:22.770Z,16.50
2017-10-11T16:51:51.069Z,16.50
2017-10-11T16:54:19.391Z,16.50
2017-10-11T16:56:48.425Z,16.40
2017-10-11T16:59:16.750Z,16.40
2017-10-11T17:01:45.783Z,16.40
2017-10-11T17:04:14.062Z,16.40
2017-10-11T17:06:42.390Z,16.40
2017-10-11T17:09:10.634Z,16.30
2017-10-11T17:11:38.908Z,16.40
2017-10-11T17:14:07.266Z,16.40
2017-10-11T17:16:35.527Z,16.30
2017-10-11T17:19:03.845Z,16.40
2017-10-11T17:21:32.176Z,16.40
2017-10-11T17:24:00.585Z,16.40
2017-10-11T17:26:28.898Z,16.50
2017-10-11T17:28:57.198Z,16.60
2017-10-11T17:31:26.264Z,16.60
2017-10-11T17:33:54.609Z,16.60
2017-10-11T17:36:22.940Z,16.50
2017-10-11T17:38:52.092Z,16.50
2017-10-11T17:41:20.456Z,16.50
2017-10-11T17:43:48.822Z,16.40
2017-10-11T17:46:17.172Z,16.40
2017-10-11T17:48:45.458Z,16.50
2017-10-11T17:51:13.780Z,16.40
2017-10-11T17:53:42.103Z,16.60
2017-10-11T17:56:11.201Z,16.30
2017-10-11T17:58:40.317Z,16.40
2017-10-11T18:01:09.184Z,16.30
2017-10-11T18:03:38.295Z,16.40
2017-10-11T18:06:06.709Z,16.40
2017-10-11T18:08:35.072Z,16.40
2017-10-11T18:11:03.366Z,16.40
2017-10-11T18:13:31.728Z,16.40
2017-10-11T18:16:00.041Z,16.50
2017-10-11T18:18:28.422Z,16.50
2017-10-11T18:20:56.856Z,16.40
2017-10-11T18:23:25.157Z,16.40
2017-10-11T18:25:53.521Z,16.50
2017-10-11T18:28:21.913Z,16.40
2017-10-11T18:30:50.443Z,16.40
2017-10-11T18:33:18.822Z,16.30
2017-10-11T18:35:47.209Z,16.20
2017-10-11T18:38:15.540Z,16.00
2017-10-11T18:40:43.870Z,15.50
2017-10-11T18:43:12.236Z,15.60
2017-10-11T18:45:40.638Z,15.30
2017-10-11T18:48:08.913Z,15.50
2017-10-11T18:50:37.451Z,15.50
2017-10-11T18:53:05.702Z,15.40
2017-10-11T18:55:34.032Z,15.50
2017-10-11T18:58:02.400Z,15.60
2017-10-11T19:00:31.447Z,15.40
2017-10-11T19:02:59.697Z,15.30
2017-10-11T19:05:28.031Z,15.30
2017-10-11T19:07:57.051Z,15.30
2017-10-11T19:10:25.317Z,15.30
2017-10-11T19:12:53.655Z,15.20
2017-10-11T19:15:21.925Z,15.20
2017-10-11T19:17:50.188Z,15.20
2017-10-11T19:20:18.616Z,15.10
2017-10-11T19:22:46.925Z,15.10
2017-10-11T19:25:15.257Z,15.10
2017-10-11T19:27:44.389Z,14.80
2017-10-11T19:30:12.845Z,14.80
2017-10-11T19:32:41.186Z,14.90
2017-10-11T19:35:09.654Z,14.90
2017-10-11T19:37:37.977Z,15.00
2017-10-11T19:40:06.440Z,14.90
2017-10-11T19:42:34.872Z,14.90
2017-10-11T19:45:03.167Z,14.80
2017-10-11T19:47:31.501Z,14.90
2017-10-11T19:49:59.974Z,14.90
2017-10-11T19:52:29.055Z,14.80
2017-10-11T19:54:58.248Z,14.80
2017-10-11T19:57:26.643Z,14.80
2017-10-11T19:59:54.987Z,14.80
2017-10-11T20:02:23.299Z,14.80
2017-10-11T20:04:52.431Z,14.70
2017-10-11T20:07:20.758Z,14.70
2017-10-11T20:09:49.810Z,14.70
2017-10-11T20:12:19.752Z,14.70
2017-10-11T20:14:48.157Z,14.70
2017-10-11T20:17:16.438Z,14.70
2017-10-11T20:19:44.866Z,14.70
2017-10-11T20:22:13.114Z,14.70
2017-10-11T20:24:41.545Z,14.70
2017-10-11T20:27:10.181Z,14.60
2017-10-11T20:29:38.536Z,14.60
2017-10-11T20:32:06.834Z,14.50
2017-10-11T20:34:35.204Z,14.60
2017-10-11T20:37:03.486Z,14.60
2017-10-11T20:39:31.901Z,14.60
2017-10-11T20:42:00.234Z,14.60
2017-10-11T20:44:28.543Z,14.60
2017-10-11T20:46:56.844Z,14.60
2017-10-11T20:49:25.174Z,14.50
2017-10-11T20:51:53.542Z,14.50
2017-10-11T20:54:21.923Z,14.50
2017-10-11T20:56:50.228Z,14.40
2017-10-11T20:59:18.588Z,14.50
2017-10-11T21:01:46.963Z,14.50
2017-10-11T21:04:15.287Z,14.40
2017-10-11T21:06:43.557Z,14.40
2017-10-11T21:09:11.962Z,14.30
2017-10-11T21:11:41.261Z,14.30
2017-10-11T21:14:10.474Z,14.30
2017-10-11T21:16:38.811Z,14.30
2017-10-11T21:19:07.239Z,14.10
2017-10-11T21:21:35.545Z,14.10
2017-10-11T21:24:03.817Z,14.10
2017-10-11T21:26:32.163Z,14.20
2017-10-11T21:29:00.414Z,14.00
2017-10-11T21:31:29.470Z,14.10
2017-10-11T21:33:57.801Z,14.10
2017-10-11T21:36:26.132Z,14.00
2017-10-11T21:38:54.446Z,14.00
2017-10-11T21:41:23.466Z,14.00
2017-10-11T21:43:51.698Z,14.00
2017-10-11T21:46:20.024Z,13.90
2017-10-11T21:48:48.269Z,14.00
2017-10-11T21:51:17.339Z,14.00
2017-10-11T21:53:45.651Z,14.00
2017-10-11T21:56:13.913Z,14.00
2017-10-11T21:58:42.917Z,13.80
2017-10-11T22:01:11.234Z,13.80
2017-10-11T22:03:39.539Z,13.80
2017-10-11T22:06:07.804Z,13.60
2017-10-11T22:08:36.112Z,13.60
2017-10-11T22:11:04.393Z,13.60
2017-10-11T22:13:32.726Z,13.70
2017-10-11T22:16:01.126Z,13.60
2017-10-11T22:18:29.393Z,13.50
2017-10-11T22:20:57.644Z,13.60
2017-10-11T22:23:25.995Z,13.50
2017-10-11T22:25:55.192Z,13.50
2017-10-11T22:28:23.422Z,13.60
2017-10-11T22:30:51.792Z,13.60
2017-10-11T22:33:20.026Z,13.50
2017-10-11T22:35:48.282Z,13.40
2017-10-11T22:38:16.625Z,13.50
2017-10-11T22:40:45.023Z,13.40
2017-10-11T22:43:14.038Z,13.30
2017-10-11T22:45:42.344Z,13.30
2017-10-11T22:48:10.603Z,13.40
2017-10-11T22:50:38.886Z,13.20
2017-10-11T22:53:07.228Z,13.30
2017-10-11T22:55:36.238Z,13.30
2017-10-11T22:58:04.493Z,13.30
2017-10-11T23:00:33.582Z,13.30
2017-10-11T23:03:02.595Z,13.30
2017-10-11T23:05:30.870Z,13.30
2017-10-11T23:07:59.190Z,13.30
2017-10-11T23:10:27.423Z,13.30
2017-10-11T23:12:55.716Z,13.40
2017-10-11T23:15:24.044Z,13.30
2017-10-11T23:17:52.306Z,13.30
2017-10-11T23:20:20.666Z,13.30
2017-10-11T23:22:49.000Z,13.30
2017-10-11T23:25:17.267Z,13.30
2017-10-11T23:27:46.398Z,13.20
2017-10-11T23:30:14.850Z,13.20
2017-10-11T23:32:43.933Z,13.20
2017-10-11T23:35:13.039Z,13.20
2017-10-11T23:37:41.303Z,13.20
2017-10-11T23:40:10.320Z,13.30
2017-10-11T23:42:38.633Z,13.30
2017-10-11T23:45:06.873Z,13.40
2017-10-11T23:47:35.123Z,13.40
2017-10-11T23:50:04.226Z,13.40
2017-10-11T23:52:33.259Z,13.40
2017-10-11T23:55:01.526Z,13.40
2017-10-11T23:57:29.869Z,13.30
2017-10-11T23:59:58.118Z,13.40
